sensor_id;sensor_type;location;lat;lon;timestamp;P1;durP1;ratioP1;P2;durP2;ratioP2
32734;SDS011;19112;51.076;3.706;2022-12-07T00:01:10;27.33;;;12.88;;
32734;SDS011;19112;51.076;3.706;2022-12-07T00:03:42;27.90;;;9.75;;
32734;SDS011;19112;51.076;3.706;2022-12-07T00:06:11;26.35;;;11.82;;
32734;SDS011;19112;51.076;3.706;2022-12-07T00:08:39;24.95;;;9.60;;
32734;SDS011;19112;51.076;3.706;2022-12-07T00:11:06;25.30;;;10.93;;
32734;SDS011;19112;51.076;3.706;2022-12-07T00:13:40;21.73;;;9.40;;
32734;SDS011;19112;51.076;3.706;2022-12-07T00:16:14;24.80;;;8.73;;
32734;SDS011;19112;51.076;3.706;2022-12-07T00:18:42;23.23;;;9.77;;
32734;SDS011;19112;51.076;3.706;2022-12-07T00:21:13;23.15;;;8.73;;
32734;SDS011;19112;51.076;3.706;2022-12-07T00:23:42;22.30;;;7.57;;
32734;SDS011;19112;51.076;3.706;2022-12-07T00:26:11;21.00;;;7.70;;
32734;SDS011;19112;51.076;3.706;2022-12-07T00:28:39;20.45;;;6.93;;
32734;SDS011;19112;51.076;3.706;2022-12-07T00:31:09;22.20;;;6.53;;
32734;SDS011;19112;51.076;3.706;2022-12-07T00:33:37;17.03;;;6.00;;
32734;SDS011;19112;51.076;3.706;2022-12-07T00:36:04;14.63;;;5.80;;
32734;SDS011;19112;51.076;3.706;2022-12-07T00:38:34;14.93;;;6.05;;
32734;SDS011;19112;51.076;3.706;2022-12-07T00:41:06;14.38;;;5.05;;
32734;SDS011;19112;51.076;3.706;2022-12-07T00:43:38;16.73;;;5.60;;
32734;SDS011;19112;51.076;3.706;2022-12-07T00:46:04;14.25;;;4.90;;
32734;SDS011;19112;51.076;3.706;2022-12-07T00:48:30;15.65;;;4.70;;
32734;SDS011;19112;51.076;3.706;2022-12-07T00:50:56;13.85;;;4.38;;
32734;SDS011;19112;51.076;3.706;2022-12-07T00:53:22;15.35;;;4.60;;
32734;SDS011;19112;51.076;3.706;2022-12-07T00:55:48;13.27;;;4.72;;
32734;SDS011;19112;51.076;3.706;2022-12-07T00:58:14;17.50;;;5.05;;
32734;SDS011;19112;51.076;3.706;2022-12-07T01:00:41;19.33;;;4.95;;
32734;SDS011;19112;51.076;3.706;2022-12-07T01:03:09;12.88;;;4.82;;
32734;SDS011;19112;51.076;3.706;2022-12-07T01:05:37;15.68;;;4.40;;
32734;SDS011;19112;51.076;3.706;2022-12-07T01:08:03;16.67;;;5.43;;
32734;SDS011;19112;51.076;3.706;2022-12-07T01:10:30;19.25;;;5.45;;
32734;SDS011;19112;51.076;3.706;2022-12-07T01:12:56;13.00;;;4.75;;
32734;SDS011;19112;51.076;3.706;2022-12-07T01:15:23;14.43;;;5.35;;
32734;SDS011;19112;51.076;3.706;2022-12-07T01:17:50;29.15;;;6.03;;
32734;SDS011;19112;51.076;3.706;2022-12-07T01:20:16;18.05;;;5.20;;
32734;SDS011;19112;51.076;3.706;2022-12-07T01:22:42;17.85;;;6.60;;
32734;SDS011;19112;51.076;3.706;2022-12-07T01:25:09;19.33;;;6.10;;
32734;SDS011;19112;51.076;3.706;2022-12-07T01:27:36;17.23;;;6.15;;
32734;SDS011;19112;51.076;3.706;2022-12-07T01:30:03;19.45;;;5.57;;
32734;SDS011;19112;51.076;3.706;2022-12-07T01:32:31;20.48;;;6.22;;
32734;SDS011;19112;51.076;3.706;2022-12-07T01:34:57;23.63;;;6.82;;
32734;SDS011;19112;51.076;3.706;2022-12-07T01:37:23;15.32;;;6.03;;
32734;SDS011;19112;51.076;3.706;2022-12-07T01:39:49;22.30;;;6.93;;
32734;SDS011;19112;51.076;3.706;2022-12-07T01:42:16;18.58;;;6.97;;
32734;SDS011;19112;51.076;3.706;2022-12-07T01:47:43;19.70;;;7.43;;
32734;SDS011;19112;51.076;3.706;2022-12-07T01:50:15;26.55;;;8.27;;
32734;SDS011;19112;51.076;3.706;2022-12-07T01:52:41;22.25;;;8.50;;
32734;SDS011;19112;51.076;3.706;2022-12-07T01:55:13;17.83;;;7.95;;
32734;SDS011;19112;51.076;3.706;2022-12-07T01:57:43;23.83;;;8.65;;
32734;SDS011;19112;51.076;3.706;2022-12-07T02:00:14;22.80;;;8.95;;
32734;SDS011;19112;51.076;3.706;2022-12-07T02:03:04;26.45;;;10.13;;
32734;SDS011;19112;51.076;3.706;2022-12-07T02:08:02;23.20;;;9.43;;
32734;SDS011;19112;51.076;3.706;2022-12-07T02:10:29;23.10;;;9.38;;
32734;SDS011;19112;51.076;3.706;2022-12-07T02:12:58;28.42;;;10.50;;
32734;SDS011;19112;51.076;3.706;2022-12-07T02:15:40;27.17;;;9.75;;
32734;SDS011;19112;51.076;3.706;2022-12-07T02:21:54;23.02;;;9.75;;
32734;SDS011;19112;51.076;3.706;2022-12-07T02:29:58;20.50;;;7.80;;
32734;SDS011;19112;51.076;3.706;2022-12-07T02:32:59;20.30;;;8.65;;
32734;SDS011;19112;51.076;3.706;2022-12-07T02:35:38;23.05;;;9.05;;
32734;SDS011;19112;51.076;3.706;2022-12-07T02:38:14;22.33;;;8.70;;
32734;SDS011;19112;51.076;3.706;2022-12-07T02:41:12;24.38;;;7.68;;
32734;SDS011;19112;51.076;3.706;2022-12-07T02:43:58;20.35;;;7.65;;
32734;SDS011;19112;51.076;3.706;2022-12-07T02:46:29;21.15;;;7.93;;
32734;SDS011;19112;51.076;3.706;2022-12-07T02:49:03;24.35;;;7.95;;
32734;SDS011;19112;51.076;3.706;2022-12-07T02:51:31;21.40;;;7.75;;
32734;SDS011;19112;51.076;3.706;2022-12-07T02:53:58;21.23;;;7.00;;
32734;SDS011;19112;51.076;3.706;2022-12-07T02:56:38;20.73;;;7.07;;
32734;SDS011;19112;51.076;3.706;2022-12-07T03:11:14;19.23;;;6.97;;
32734;SDS011;19112;51.076;3.706;2022-12-07T03:14:12;18.98;;;7.20;;
32734;SDS011;19112;51.076;3.706;2022-12-07T03:16:57;18.58;;;6.55;;
32734;SDS011;19112;51.076;3.706;2022-12-07T03:19:38;17.23;;;6.78;;
32734;SDS011;19112;51.076;3.706;2022-12-07T03:22:07;17.17;;;6.65;;
32734;SDS011;19112;51.076;3.706;2022-12-07T03:24:39;18.75;;;6.68;;
32734;SDS011;19112;51.076;3.706;2022-12-07T03:27:10;18.45;;;7.15;;
32734;SDS011;19112;51.076;3.706;2022-12-07T03:29:38;19.23;;;6.90;;
32734;SDS011;19112;51.076;3.706;2022-12-07T03:32:13;16.65;;;6.22;;
32734;SDS011;19112;51.076;3.706;2022-12-07T03:34:53;17.55;;;6.15;;
32734;SDS011;19112;51.076;3.706;2022-12-07T03:37:39;22.55;;;7.35;;
32734;SDS011;19112;51.076;3.706;2022-12-07T03:43:00;17.58;;;5.78;;
32734;SDS011;19112;51.076;3.706;2022-12-07T03:45:32;16.48;;;5.38;;
32734;SDS011;19112;51.076;3.706;2022-12-07T03:51:13;14.75;;;5.03;;
32734;SDS011;19112;51.076;3.706;2022-12-07T03:54:10;15.75;;;5.22;;
32734;SDS011;19112;51.076;3.706;2022-12-07T03:56:46;16.45;;;4.43;;
32734;SDS011;19112;51.076;3.706;2022-12-07T03:59:13;18.13;;;4.72;;
32734;SDS011;19112;51.076;3.706;2022-12-07T04:01:44;13.88;;;4.78;;
32734;SDS011;19112;51.076;3.706;2022-12-07T04:04:16;16.35;;;4.70;;
32734;SDS011;19112;51.076;3.706;2022-12-07T04:06:42;16.40;;;5.18;;
32734;SDS011;19112;51.076;3.706;2022-12-07T04:09:08;10.85;;;4.25;;
32734;SDS011;19112;51.076;3.706;2022-12-07T04:11:34;15.60;;;4.32;;
32734;SDS011;19112;51.076;3.706;2022-12-07T04:13:59;13.82;;;4.63;;
32734;SDS011;19112;51.076;3.706;2022-12-07T04:16:53;15.15;;;4.90;;
32734;SDS011;19112;51.076;3.706;2022-12-07T04:19:28;17.45;;;4.70;;
32734;SDS011;19112;51.076;3.706;2022-12-07T04:21:57;13.90;;;4.18;;
32734;SDS011;19112;51.076;3.706;2022-12-07T04:24:25;12.27;;;4.50;;
32734;SDS011;19112;51.076;3.706;2022-12-07T04:26:51;16.42;;;4.93;;
32734;SDS011;19112;51.076;3.706;2022-12-07T04:29:17;20.58;;;4.80;;
32734;SDS011;19112;51.076;3.706;2022-12-07T04:31:44;14.43;;;4.65;;
32734;SDS011;19112;51.076;3.706;2022-12-07T04:34:10;17.05;;;5.18;;
32734;SDS011;19112;51.076;3.706;2022-12-07T04:36:37;14.00;;;4.60;;
32734;SDS011;19112;51.076;3.706;2022-12-07T04:39:04;14.18;;;4.75;;
32734;SDS011;19112;51.076;3.706;2022-12-07T04:41:31;16.02;;;5.68;;
32734;SDS011;19112;51.076;3.706;2022-12-07T04:43:58;14.98;;;5.25;;
32734;SDS011;19112;51.076;3.706;2022-12-07T04:46:27;11.93;;;4.35;;
32734;SDS011;19112;51.076;3.706;2022-12-07T04:48:55;11.25;;;4.63;;
32734;SDS011;19112;51.076;3.706;2022-12-07T04:51:22;12.30;;;4.43;;
32734;SDS011;19112;51.076;3.706;2022-12-07T04:53:51;17.00;;;4.43;;
32734;SDS011;19112;51.076;3.706;2022-12-07T04:56:17;14.32;;;4.40;;
32734;SDS011;19112;51.076;3.706;2022-12-07T04:58:44;17.95;;;4.43;;
32734;SDS011;19112;51.076;3.706;2022-12-07T05:01:12;15.82;;;4.22;;
32734;SDS011;19112;51.076;3.706;2022-12-07T05:03:42;17.38;;;4.65;;
32734;SDS011;19112;51.076;3.706;2022-12-07T05:06:08;16.63;;;4.15;;
32734;SDS011;19112;51.076;3.706;2022-12-07T05:08:36;15.77;;;5.40;;
32734;SDS011;19112;51.076;3.706;2022-12-07T05:11:03;15.27;;;4.65;;
32734;SDS011;19112;51.076;3.706;2022-12-07T05:13:31;18.75;;;4.80;;
32734;SDS011;19112;51.076;3.706;2022-12-07T05:15:57;16.00;;;4.43;;
32734;SDS011;19112;51.076;3.706;2022-12-07T05:18:23;16.08;;;5.00;;
32734;SDS011;19112;51.076;3.706;2022-12-07T05:20:49;15.25;;;4.93;;
32734;SDS011;19112;51.076;3.706;2022-12-07T05:23:16;13.35;;;3.67;;
32734;SDS011;19112;51.076;3.706;2022-12-07T05:25:43;15.10;;;4.43;;
32734;SDS011;19112;51.076;3.706;2022-12-07T05:28:09;12.23;;;4.20;;
32734;SDS011;19112;51.076;3.706;2022-12-07T05:30:35;8.32;;;3.33;;
32734;SDS011;19112;51.076;3.706;2022-12-07T05:33:01;11.05;;;4.15;;
32734;SDS011;19112;51.076;3.706;2022-12-07T05:35:27;14.02;;;4.20;;
32734;SDS011;19112;51.076;3.706;2022-12-07T05:37:54;13.25;;;4.03;;
32734;SDS011;19112;51.076;3.706;2022-12-07T05:40:20;11.13;;;4.40;;
32734;SDS011;19112;51.076;3.706;2022-12-07T05:42:46;12.18;;;4.30;;
32734;SDS011;19112;51.076;3.706;2022-12-07T05:45:12;17.75;;;4.50;;
32734;SDS011;19112;51.076;3.706;2022-12-07T05:47:38;15.70;;;4.72;;
32734;SDS011;19112;51.076;3.706;2022-12-07T05:50:04;11.07;;;4.22;;
32734;SDS011;19112;51.076;3.706;2022-12-07T05:52:30;11.45;;;3.92;;
32734;SDS011;19112;51.076;3.706;2022-12-07T05:54:56;10.98;;;3.63;;
32734;SDS011;19112;51.076;3.706;2022-12-07T05:57:22;11.75;;;4.05;;
32734;SDS011;19112;51.076;3.706;2022-12-07T05:59:48;9.15;;;3.67;;
32734;SDS011;19112;51.076;3.706;2022-12-07T06:02:14;12.10;;;4.28;;
32734;SDS011;19112;51.076;3.706;2022-12-07T06:04:42;13.18;;;4.47;;
32734;SDS011;19112;51.076;3.706;2022-12-07T06:07:11;18.27;;;4.85;;
32734;SDS011;19112;51.076;3.706;2022-12-07T06:09:40;18.67;;;5.07;;
32734;SDS011;19112;51.076;3.706;2022-12-07T06:12:06;20.70;;;5.22;;
32734;SDS011;19112;51.076;3.706;2022-12-07T06:14:54;18.45;;;4.60;;
32734;SDS011;19112;51.076;3.706;2022-12-07T06:17:19;17.33;;;4.85;;
32734;SDS011;19112;51.076;3.706;2022-12-07T06:19:45;19.27;;;5.40;;
32734;SDS011;19112;51.076;3.706;2022-12-07T06:22:11;16.35;;;5.70;;
32734;SDS011;19112;51.076;3.706;2022-12-07T06:24:37;17.30;;;5.20;;
32734;SDS011;19112;51.076;3.706;2022-12-07T06:27:05;16.88;;;5.35;;
32734;SDS011;19112;51.076;3.706;2022-12-07T06:29:31;25.35;;;6.47;;
32734;SDS011;19112;51.076;3.706;2022-12-07T06:31:57;20.25;;;5.78;;
32734;SDS011;19112;51.076;3.706;2022-12-07T06:34:23;16.52;;;5.70;;
32734;SDS011;19112;51.076;3.706;2022-12-07T06:36:51;17.50;;;4.45;;
32734;SDS011;19112;51.076;3.706;2022-12-07T06:39:19;18.40;;;5.20;;
32734;SDS011;19112;51.076;3.706;2022-12-07T06:41:47;15.32;;;5.45;;
32734;SDS011;19112;51.076;3.706;2022-12-07T06:44:14;16.50;;;5.15;;
32734;SDS011;19112;51.076;3.706;2022-12-07T06:46:40;15.40;;;5.10;;
32734;SDS011;19112;51.076;3.706;2022-12-07T06:49:05;17.77;;;6.55;;
32734;SDS011;19112;51.076;3.706;2022-12-07T06:51:32;23.45;;;8.00;;
32734;SDS011;19112;51.076;3.706;2022-12-07T06:54:01;20.67;;;7.63;;
32734;SDS011;19112;51.076;3.706;2022-12-07T06:56:30;22.17;;;7.20;;
32734;SDS011;19112;51.076;3.706;2022-12-07T06:58:55;27.10;;;8.30;;
32734;SDS011;19112;51.076;3.706;2022-12-07T07:01:21;23.33;;;7.82;;
32734;SDS011;19112;51.076;3.706;2022-12-07T07:03:47;22.52;;;7.35;;
32734;SDS011;19112;51.076;3.706;2022-12-07T07:06:13;16.70;;;6.45;;
32734;SDS011;19112;51.076;3.706;2022-12-07T07:08:40;23.17;;;8.35;;
32734;SDS011;19112;51.076;3.706;2022-12-07T07:11:06;23.20;;;7.25;;
32734;SDS011;19112;51.076;3.706;2022-12-07T07:13:34;20.02;;;7.50;;
32734;SDS011;19112;51.076;3.706;2022-12-07T07:16:00;26.15;;;7.47;;
32734;SDS011;19112;51.076;3.706;2022-12-07T07:18:26;30.90;;;11.85;;
32734;SDS011;19112;51.076;3.706;2022-12-07T07:20:53;19.95;;;7.43;;
32734;SDS011;19112;51.076;3.706;2022-12-07T07:23:20;17.58;;;6.03;;
32734;SDS011;19112;51.076;3.706;2022-12-07T07:25:46;29.13;;;7.75;;
32734;SDS011;19112;51.076;3.706;2022-12-07T07:28:12;25.02;;;7.43;;
32734;SDS011;19112;51.076;3.706;2022-12-07T07:30:38;26.35;;;7.65;;
32734;SDS011;19112;51.076;3.706;2022-12-07T07:33:04;25.83;;;6.38;;
32734;SDS011;19112;51.076;3.706;2022-12-07T07:35:31;24.13;;;7.85;;
32734;SDS011;19112;51.076;3.706;2022-12-07T07:37:59;21.67;;;6.47;;
32734;SDS011;19112;51.076;3.706;2022-12-07T07:40:25;25.77;;;6.00;;
32734;SDS011;19112;51.076;3.706;2022-12-07T07:42:52;28.92;;;9.43;;
32734;SDS011;19112;51.076;3.706;2022-12-07T07:45:19;38.15;;;10.95;;
32734;SDS011;19112;51.076;3.706;2022-12-07T07:47:47;27.00;;;8.68;;
32734;SDS011;19112;51.076;3.706;2022-12-07T07:50:13;30.48;;;8.82;;
32734;SDS011;19112;51.076;3.706;2022-12-07T07:52:39;26.45;;;8.18;;
32734;SDS011;19112;51.076;3.706;2022-12-07T07:55:05;20.30;;;6.65;;
32734;SDS011;19112;51.076;3.706;2022-12-07T07:57:33;24.13;;;8.50;;
32734;SDS011;19112;51.076;3.706;2022-12-07T08:00:01;21.67;;;6.70;;
32734;SDS011;19112;51.076;3.706;2022-12-07T08:02:30;18.73;;;7.03;;
32734;SDS011;19112;51.076;3.706;2022-12-07T08:04:56;18.13;;;6.70;;
32734;SDS011;19112;51.076;3.706;2022-12-07T08:07:22;26.40;;;7.55;;
32734;SDS011;19112;51.076;3.706;2022-12-07T08:09:47;20.90;;;8.38;;
32734;SDS011;19112;51.076;3.706;2022-12-07T08:12:13;23.55;;;8.30;;
32734;SDS011;19112;51.076;3.706;2022-12-07T08:14:39;22.83;;;8.50;;
32734;SDS011;19112;51.076;3.706;2022-12-07T08:17:05;21.52;;;7.40;;
32734;SDS011;19112;51.076;3.706;2022-12-07T08:19:30;20.45;;;7.70;;
32734;SDS011;19112;51.076;3.706;2022-12-07T08:21:56;21.58;;;7.07;;
32734;SDS011;19112;51.076;3.706;2022-12-07T08:24:22;18.98;;;6.95;;
32734;SDS011;19112;51.076;3.706;2022-12-07T08:26:48;18.25;;;6.00;;
32734;SDS011;19112;51.076;3.706;2022-12-07T08:29:15;18.05;;;6.22;;
32734;SDS011;19112;51.076;3.706;2022-12-07T08:31:41;21.48;;;5.97;;
32734;SDS011;19112;51.076;3.706;2022-12-07T08:34:07;17.90;;;5.55;;
32734;SDS011;19112;51.076;3.706;2022-12-07T08:36:35;24.30;;;6.25;;
32734;SDS011;19112;51.076;3.706;2022-12-07T08:39:02;19.88;;;6.63;;
32734;SDS011;19112;51.076;3.706;2022-12-07T08:41:28;24.33;;;7.20;;
32734;SDS011;19112;51.076;3.706;2022-12-07T08:43:54;25.40;;;9.30;;
32734;SDS011;19112;51.076;3.706;2022-12-07T08:48:54;43.38;;;16.30;;
32734;SDS011;19112;51.076;3.706;2022-12-07T08:51:26;34.97;;;13.65;;
32734;SDS011;19112;51.076;3.706;2022-12-07T08:53:52;24.88;;;9.25;;
32734;SDS011;19112;51.076;3.706;2022-12-07T08:56:20;24.27;;;7.88;;
32734;SDS011;19112;51.076;3.706;2022-12-07T08:58:46;23.17;;;7.30;;
32734;SDS011;19112;51.076;3.706;2022-12-07T09:01:13;24.25;;;7.50;;
32734;SDS011;19112;51.076;3.706;2022-12-07T09:03:39;26.58;;;7.60;;
32734;SDS011;19112;51.076;3.706;2022-12-07T09:06:05;20.70;;;7.03;;
32734;SDS011;19112;51.076;3.706;2022-12-07T09:08:33;24.05;;;7.40;;
32734;SDS011;19112;51.076;3.706;2022-12-07T09:11:04;21.92;;;7.38;;
32734;SDS011;19112;51.076;3.706;2022-12-07T09:13:30;18.33;;;6.03;;
32734;SDS011;19112;51.076;3.706;2022-12-07T09:15:56;17.08;;;5.97;;
32734;SDS011;19112;51.076;3.706;2022-12-07T09:18:22;20.65;;;7.47;;
32734;SDS011;19112;51.076;3.706;2022-12-07T09:20:49;26.63;;;7.88;;
32734;SDS011;19112;51.076;3.706;2022-12-07T09:23:14;23.90;;;7.47;;
32734;SDS011;19112;51.076;3.706;2022-12-07T09:25:40;37.65;;;9.90;;
32734;SDS011;19112;51.076;3.706;2022-12-07T09:28:06;22.27;;;7.13;;
32734;SDS011;19112;51.076;3.706;2022-12-07T09:30:32;26.08;;;7.22;;
32734;SDS011;19112;51.076;3.706;2022-12-07T09:32:58;20.90;;;5.22;;
32734;SDS011;19112;51.076;3.706;2022-12-07T09:35:24;14.60;;;5.07;;
32734;SDS011;19112;51.076;3.706;2022-12-07T09:37:50;15.77;;;4.45;;
32734;SDS011;19112;51.076;3.706;2022-12-07T09:40:16;23.92;;;4.30;;
32734;SDS011;19112;51.076;3.706;2022-12-07T09:42:46;24.83;;;5.32;;
32734;SDS011;19112;51.076;3.706;2022-12-07T09:45:21;24.10;;;5.32;;
32734;SDS011;19112;51.076;3.706;2022-12-07T09:47:58;21.02;;;5.35;;
32734;SDS011;19112;51.076;3.706;2022-12-07T09:50:26;22.58;;;6.15;;
32734;SDS011;19112;51.076;3.706;2022-12-07T09:52:54;29.02;;;5.18;;
32734;SDS011;19112;51.076;3.706;2022-12-07T09:55:34;16.80;;;5.13;;
32734;SDS011;19112;51.076;3.706;2022-12-07T09:58:02;17.95;;;4.63;;
32734;SDS011;19112;51.076;3.706;2022-12-07T10:00:29;22.52;;;5.47;;
32734;SDS011;19112;51.076;3.706;2022-12-07T10:02:58;19.92;;;4.82;;
32734;SDS011;19112;51.076;3.706;2022-12-07T10:05:30;26.73;;;7.25;;
32734;SDS011;19112;51.076;3.706;2022-12-07T10:08:02;23.45;;;6.70;;
32734;SDS011;19112;51.076;3.706;2022-12-07T10:10:32;27.50;;;6.85;;
32734;SDS011;19112;51.076;3.706;2022-12-07T10:13:05;18.85;;;6.43;;
32734;SDS011;19112;51.076;3.706;2022-12-07T10:18:16;25.67;;;7.45;;
32734;SDS011;19112;51.076;3.706;2022-12-07T10:20:48;21.73;;;7.65;;
32734;SDS011;19112;51.076;3.706;2022-12-07T10:23:17;25.20;;;6.95;;
32734;SDS011;19112;51.076;3.706;2022-12-07T10:25:43;19.33;;;6.95;;
32734;SDS011;19112;51.076;3.706;2022-12-07T10:28:17;21.48;;;6.72;;
32734;SDS011;19112;51.076;3.706;2022-12-07T10:33:35;19.48;;;5.07;;
32734;SDS011;19112;51.076;3.706;2022-12-07T10:39:11;22.35;;;5.57;;
32734;SDS011;19112;51.076;3.706;2022-12-07T10:41:53;19.00;;;5.55;;
32734;SDS011;19112;51.076;3.706;2022-12-07T10:44:33;20.73;;;6.80;;
32734;SDS011;19112;51.076;3.706;2022-12-07T10:53:13;23.40;;;5.85;;
32734;SDS011;19112;51.076;3.706;2022-12-07T11:01:54;47.40;;;5.35;;
32734;SDS011;19112;51.076;3.706;2022-12-07T11:04:59;14.48;;;4.25;;
32734;SDS011;19112;51.076;3.706;2022-12-07T11:08:00;15.00;;;4.10;;
32734;SDS011;19112;51.076;3.706;2022-12-07T11:10:58;21.67;;;4.60;;
32734;SDS011;19112;51.076;3.706;2022-12-07T11:14:23;18.13;;;5.13;;
32734;SDS011;19112;51.076;3.706;2022-12-07T11:17:32;21.92;;;6.70;;
32734;SDS011;19112;51.076;3.706;2022-12-07T11:20:39;17.92;;;4.97;;
32734;SDS011;19112;51.076;3.706;2022-12-07T11:26:52;14.88;;;4.60;;
32734;SDS011;19112;51.076;3.706;2022-12-07T11:29:44;18.13;;;4.93;;
32734;SDS011;19112;51.076;3.706;2022-12-07T11:32:22;15.23;;;5.03;;
32734;SDS011;19112;51.076;3.706;2022-12-07T11:38:27;16.30;;;4.88;;
32734;SDS011;19112;51.076;3.706;2022-12-07T11:41:15;20.67;;;4.85;;
32734;SDS011;19112;51.076;3.706;2022-12-07T11:43:53;17.98;;;4.45;;
32734;SDS011;19112;51.076;3.706;2022-12-07T11:46:36;13.85;;;3.85;;
32734;SDS011;19112;51.076;3.706;2022-12-07T11:49:19;12.90;;;3.90;;
32734;SDS011;19112;51.076;3.706;2022-12-07T11:52:02;16.55;;;4.10;;
32734;SDS011;19112;51.076;3.706;2022-12-07T11:54:35;14.05;;;3.72;;
32734;SDS011;19112;51.076;3.706;2022-12-07T11:57:09;14.32;;;3.95;;
32734;SDS011;19112;51.076;3.706;2022-12-07T11:59:54;14.68;;;3.75;;
32734;SDS011;19112;51.076;3.706;2022-12-07T12:02:28;13.25;;;3.95;;
32734;SDS011;19112;51.076;3.706;2022-12-07T12:05:23;13.55;;;3.67;;
32734;SDS011;19112;51.076;3.706;2022-12-07T12:07:58;17.02;;;3.47;;
32734;SDS011;19112;51.076;3.706;2022-12-07T12:25:42;18.08;;;3.33;;
32734;SDS011;19112;51.076;3.706;2022-12-07T12:33:43;20.55;;;5.88;;
32734;SDS011;19112;51.076;3.706;2022-12-07T12:36:18;18.80;;;4.80;;
32734;SDS011;19112;51.076;3.706;2022-12-07T12:46:59;15.07;;;4.60;;
32734;SDS011;19112;51.076;3.706;2022-12-07T12:51:51;23.95;;;6.97;;
32734;SDS011;19112;51.076;3.706;2022-12-07T12:54:58;23.75;;;5.70;;
32734;SDS011;19112;51.076;3.706;2022-12-07T12:57:33;20.67;;;5.68;;
32734;SDS011;19112;51.076;3.706;2022-12-07T13:00:15;27.58;;;9.18;;
32734;SDS011;19112;51.076;3.706;2022-12-07T13:03:03;19.40;;;5.07;;
32734;SDS011;19112;51.076;3.706;2022-12-07T13:05:30;12.93;;;4.50;;
32734;SDS011;19112;51.076;3.706;2022-12-07T13:08:04;17.83;;;4.53;;
32734;SDS011;19112;51.076;3.706;2022-12-07T13:10:49;15.57;;;4.13;;
32734;SDS011;19112;51.076;3.706;2022-12-07T13:21:00;19.33;;;5.85;;
32734;SDS011;19112;51.076;3.706;2022-12-07T13:23:32;15.27;;;3.97;;
32734;SDS011;19112;51.076;3.706;2022-12-07T13:26:23;25.17;;;6.07;;
32734;SDS011;19112;51.076;3.706;2022-12-07T13:29:17;13.75;;;4.45;;
32734;SDS011;19112;51.076;3.706;2022-12-07T13:31:46;20.33;;;4.70;;
32734;SDS011;19112;51.076;3.706;2022-12-07T13:34:37;15.75;;;3.95;;
32734;SDS011;19112;51.076;3.706;2022-12-07T13:39:59;13.73;;;4.00;;
32734;SDS011;19112;51.076;3.706;2022-12-07T13:42:40;17.08;;;4.50;;
32734;SDS011;19112;51.076;3.706;2022-12-07T13:45:25;14.77;;;4.40;;
32734;SDS011;19112;51.076;3.706;2022-12-07T13:48:35;11.75;;;3.92;;
32734;SDS011;19112;51.076;3.706;2022-12-07T13:51:16;18.67;;;3.95;;
32734;SDS011;19112;51.076;3.706;2022-12-07T13:53:52;14.60;;;3.63;;
32734;SDS011;19112;51.076;3.706;2022-12-07T13:56:27;14.05;;;3.47;;
32734;SDS011;19112;51.076;3.706;2022-12-07T13:58:59;16.92;;;3.60;;
32734;SDS011;19112;51.076;3.706;2022-12-07T14:01:25;7.53;;;1.70;;
32734;SDS011;19112;51.076;3.706;2022-12-07T14:03:51;9.85;;;1.88;;
32734;SDS011;19112;51.076;3.706;2022-12-07T14:06:20;7.22;;;1.50;;
32734;SDS011;19112;51.076;3.706;2022-12-07T14:11:30;5.53;;;1.23;;
32734;SDS011;19112;51.076;3.706;2022-12-07T14:13:58;3.38;;;1.10;;
32734;SDS011;19112;51.076;3.706;2022-12-07T14:16:34;8.68;;;2.33;;
32734;SDS011;19112;51.076;3.706;2022-12-07T14:19:05;11.30;;;2.03;;
32734;SDS011;19112;51.076;3.706;2022-12-07T14:22:09;5.63;;;1.95;;
32734;SDS011;19112;51.076;3.706;2022-12-07T14:24:58;11.23;;;2.50;;
32734;SDS011;19112;51.076;3.706;2022-12-07T14:27:50;10.02;;;2.80;;
32734;SDS011;19112;51.076;3.706;2022-12-07T14:30:26;9.88;;;2.15;;
32734;SDS011;19112;51.076;3.706;2022-12-07T14:33:07;5.97;;;1.77;;
32734;SDS011;19112;51.076;3.706;2022-12-07T14:35:34;10.45;;;1.95;;
32734;SDS011;19112;51.076;3.706;2022-12-07T14:38:05;7.15;;;1.70;;
32734;SDS011;19112;51.076;3.706;2022-12-07T14:40:31;6.63;;;1.70;;
32734;SDS011;19112;51.076;3.706;2022-12-07T14:43:00;4.60;;;1.30;;
32734;SDS011;19112;51.076;3.706;2022-12-07T14:45:29;10.20;;;2.27;;
32734;SDS011;19112;51.076;3.706;2022-12-07T14:47:55;8.68;;;1.80;;
32734;SDS011;19112;51.076;3.706;2022-12-07T14:50:21;7.65;;;2.05;;
32734;SDS011;19112;51.076;3.706;2022-12-07T14:52:48;8.75;;;2.30;;
32734;SDS011;19112;51.076;3.706;2022-12-07T14:55:30;8.27;;;2.00;;
32734;SDS011;19112;51.076;3.706;2022-12-07T14:57:56;7.78;;;1.85;;
32734;SDS011;19112;51.076;3.706;2022-12-07T15:00:24;14.10;;;2.13;;
32734;SDS011;19112;51.076;3.706;2022-12-07T15:02:51;14.23;;;2.20;;
32734;SDS011;19112;51.076;3.706;2022-12-07T15:05:17;11.43;;;2.10;;
32734;SDS011;19112;51.076;3.706;2022-12-07T15:07:44;11.13;;;2.47;;
32734;SDS011;19112;51.076;3.706;2022-12-07T15:10:16;9.10;;;2.28;;
32734;SDS011;19112;51.076;3.706;2022-12-07T15:13:00;9.90;;;2.67;;
32734;SDS011;19112;51.076;3.706;2022-12-07T15:15:47;9.27;;;2.92;;
32734;SDS011;19112;51.076;3.706;2022-12-07T15:18:14;6.57;;;2.42;;
32734;SDS011;19112;51.076;3.706;2022-12-07T15:20:40;15.48;;;3.08;;
32734;SDS011;19112;51.076;3.706;2022-12-07T15:23:06;9.88;;;2.63;;
32734;SDS011;19112;51.076;3.706;2022-12-07T15:25:32;12.35;;;4.28;;
32734;SDS011;19112;51.076;3.706;2022-12-07T15:27:58;13.07;;;3.13;;
32734;SDS011;19112;51.076;3.706;2022-12-07T15:30:24;12.70;;;3.15;;
32734;SDS011;19112;51.076;3.706;2022-12-07T15:32:50;12.88;;;3.05;;
32734;SDS011;19112;51.076;3.706;2022-12-07T15:35:17;8.63;;;2.90;;
32734;SDS011;19112;51.076;3.706;2022-12-07T15:37:42;9.68;;;3.00;;
32734;SDS011;19112;51.076;3.706;2022-12-07T15:40:08;16.25;;;3.22;;
32734;SDS011;19112;51.076;3.706;2022-12-07T15:42:35;16.25;;;3.22;;
32734;SDS011;19112;51.076;3.706;2022-12-07T15:45:02;12.77;;;3.15;;
32734;SDS011;19112;51.076;3.706;2022-12-07T15:47:31;11.85;;;3.80;;
32734;SDS011;19112;51.076;3.706;2022-12-07T15:50:01;40.92;;;20.45;;
32734;SDS011;19112;51.076;3.706;2022-12-07T15:52:33;29.20;;;12.35;;
32734;SDS011;19112;51.076;3.706;2022-12-07T15:54:59;47.35;;;21.30;;
32734;SDS011;19112;51.076;3.706;2022-12-07T15:57:27;43.92;;;23.08;;
32734;SDS011;19112;51.076;3.706;2022-12-07T15:59:53;37.22;;;17.65;;
32734;SDS011;19112;51.076;3.706;2022-12-07T16:02:19;32.67;;;16.33;;
32734;SDS011;19112;51.076;3.706;2022-12-07T16:04:45;25.00;;;11.02;;
32734;SDS011;19112;51.076;3.706;2022-12-07T16:07:11;23.10;;;8.90;;
32734;SDS011;19112;51.076;3.706;2022-12-07T16:09:39;24.48;;;9.23;;
32734;SDS011;19112;51.076;3.706;2022-12-07T16:12:05;25.40;;;9.82;;
32734;SDS011;19112;51.076;3.706;2022-12-07T16:14:31;36.08;;;15.85;;
32734;SDS011;19112;51.076;3.706;2022-12-07T16:16:58;28.13;;;10.07;;
32734;SDS011;19112;51.076;3.706;2022-12-07T16:19:24;25.17;;;7.78;;
32734;SDS011;19112;51.076;3.706;2022-12-07T16:21:50;19.38;;;6.80;;
32734;SDS011;19112;51.076;3.706;2022-12-07T16:24:16;23.08;;;8.90;;
32734;SDS011;19112;51.076;3.706;2022-12-07T16:26:42;26.63;;;7.63;;
32734;SDS011;19112;51.076;3.706;2022-12-07T16:29:12;22.13;;;8.43;;
32734;SDS011;19112;51.076;3.706;2022-12-07T16:31:39;23.30;;;7.65;;
32734;SDS011;19112;51.076;3.706;2022-12-07T16:34:05;18.00;;;6.15;;
32734;SDS011;19112;51.076;3.706;2022-12-07T16:36:32;26.10;;;7.47;;
32734;SDS011;19112;51.076;3.706;2022-12-07T16:38:58;18.63;;;6.30;;
32734;SDS011;19112;51.076;3.706;2022-12-07T16:41:25;17.65;;;6.63;;
32734;SDS011;19112;51.076;3.706;2022-12-07T16:43:51;23.95;;;8.55;;
32734;SDS011;19112;51.076;3.706;2022-12-07T16:46:17;25.98;;;10.73;;